sensor_id;sensor_type;location;lat;lon;timestamp;pressure;altitude;pressure_sealevel;temperature;humidity
54816;BME280;40715;55.752;37.884;2023-01-31T00:01:37;97040.28;;;29.48;23.54
54816;BME280;40715;55.752;37.884;2023-01-31T00:04:07;97035.50;;;29.50;23.44
54816;BME280;40715;55.752;37.884;2023-01-31T00:06:40;97040.25;;;29.55;23.74
54816;BME280;40715;55.752;37.884;2023-01-31T00:09:08;97041.31;;;29.54;23.42
54816;BME280;40715;55.752;37.884;2023-01-31T00:11:36;97042.78;;;29.50;23.41
54816;BME280;40715;55.752;37.884;2023-01-31T00:14:04;97048.41;;;29.55;23.41
54816;BME280;40715;55.752;37.884;2023-01-31T00:16:32;97053.84;;;29.48;23.18
54816;BME280;40715;55.752;37.884;2023-01-31T00:19:00;97053.03;;;29.48;23.45
54816;BME280;40715;55.752;37.884;2023-01-31T00:21:28;97046.81;;;29.40;23.73
54816;BME280;40715;55.752;37.884;2023-01-31T00:23:56;97050.56;;;29.39;23.06
54816;BME280;40715;55.752;37.884;2023-01-31T00:26:29;97056.44;;;29.36;23.53
54816;BME280;40715;55.752;37.884;2023-01-31T00:28:57;97044.56;;;29.31;23.21
54816;BME280;40715;55.752;37.884;2023-01-31T00:31:26;97045.63;;;29.30;23.40
54816;BME280;40715;55.752;37.884;2023-01-31T00:33:55;97048.13;;;29.24;23.53
54816;BME280;40715;55.752;37.884;2023-01-31T00:36:25;97048.13;;;29.24;23.66
54816;BME280;40715;55.752;37.884;2023-01-31T00:38:54;97048.53;;;29.21;23.66
54816;BME280;40715;55.752;37.884;2023-01-31T00:41:25;97043.56;;;29.18;23.70
54816;BME280;40715;55.752;37.884;2023-01-31T00:43:52;97048.97;;;29.18;23.74
54816;BME280;40715;55.752;37.884;2023-01-31T00:46:20;97048.59;;;29.15;23.52
54816;BME280;40715;55.752;37.884;2023-01-31T00:48:47;97049.63;;;29.14;23.50
54816;BME280;40715;55.752;37.884;2023-01-31T00:51:15;97037.78;;;29.08;23.21
54816;BME280;40715;55.752;37.884;2023-01-31T00:53:42;97047.81;;;29.07;23.63
54816;BME280;40715;55.752;37.884;2023-01-31T00:56:14;97055.94;;;29.07;23.64
54816;BME280;40715;55.752;37.884;2023-01-31T00:58:42;97054.66;;;29.10;23.63
54816;BME280;40715;55.752;37.884;2023-01-31T01:03:36;97061.31;;;29.14;23.87
54816;BME280;40715;55.752;37.884;2023-01-31T01:06:04;97065.47;;;29.17;23.85
54816;BME280;40715;55.752;37.884;2023-01-31T01:08:32;97064.22;;;29.19;23.79
54816;BME280;40715;55.752;37.884;2023-01-31T01:11:05;97060.25;;;29.22;23.20
54816;BME280;40715;55.752;37.884;2023-01-31T01:13:33;97067.97;;;29.25;23.19
54816;BME280;40715;55.752;37.884;2023-01-31T01:16:05;97066.72;;;29.27;23.61
54816;BME280;40715;55.752;37.884;2023-01-31T01:18:33;97068.75;;;29.32;23.29
54816;BME280;40715;55.752;37.884;2023-01-31T01:21:12;97077.47;;;29.41;23.60
54816;BME280;40715;55.752;37.884;2023-01-31T01:23:40;97081.44;;;29.38;23.61
54816;BME280;40715;55.752;37.884;2023-01-31T01:26:18;97083.31;;;29.44;23.30
54816;BME280;40715;55.752;37.884;2023-01-31T01:28:46;97077.88;;;29.44;23.44
54816;BME280;40715;55.752;37.884;2023-01-31T01:31:14;97082.25;;;29.46;23.37
54816;BME280;40715;55.752;37.884;2023-01-31T01:33:42;97079.94;;;29.49;23.41
54816;BME280;40715;55.752;37.884;2023-01-31T01:36:11;97082.88;;;29.48;23.50
54816;BME280;40715;55.752;37.884;2023-01-31T01:38:39;97079.09;;;29.49;23.33
54816;BME280;40715;55.752;37.884;2023-01-31T01:41:10;97082.88;;;29.48;23.64
54816;BME280;40715;55.752;37.884;2023-01-31T01:43:52;97079.50;;;29.52;23.34
54816;BME280;40715;55.752;37.884;2023-01-31T01:46:26;97078.28;;;29.41;23.24
54816;BME280;40715;55.752;37.884;2023-01-31T01:51:44;97083.56;;;29.36;23.27
54816;BME280;40715;55.752;37.884;2023-01-31T01:54:16;97086.72;;;29.26;23.52
54816;BME280;40715;55.752;37.884;2023-01-31T01:56:47;97076.09;;;29.25;23.43
54816;BME280;40715;55.752;37.884;2023-01-31T01:59:33;97075.66;;;29.28;23.47
54816;BME280;40715;55.752;37.884;2023-01-31T02:02:02;97073.78;;;29.22;23.50
54816;BME280;40715;55.752;37.884;2023-01-31T02:04:34;97082.38;;;29.19;23.48
54816;BME280;40715;55.752;37.884;2023-01-31T02:07:02;97071.72;;;29.17;23.28
54816;BME280;40715;55.752;37.884;2023-01-31T02:09:43;97070.88;;;29.17;23.60
54816;BME280;40715;55.752;37.884;2023-01-31T02:12:11;97078.41;;;29.15;23.59
54816;BME280;40715;55.752;37.884;2023-01-31T02:14:39;97081.34;;;29.13;23.60
54816;BME280;40715;55.752;37.884;2023-01-31T02:17:27;97064.66;;;29.09;23.54
54816;BME280;40715;55.752;37.884;2023-01-31T02:50:05;97056.28;;;29.24;22.57
54816;BME280;40715;55.752;37.884;2023-01-31T02:58:26;97054.38;;;29.32;23.24
54816;BME280;40715;55.752;37.884;2023-01-31T03:00:57;97053.09;;;29.34;23.20
54816;BME280;40715;55.752;37.884;2023-01-31T03:03:27;97066.25;;;29.37;23.42
54816;BME280;40715;55.752;37.884;2023-01-31T03:09:03;97061.81;;;29.43;23.06
54816;BME280;40715;55.752;37.884;2023-01-31T03:11:45;97066.25;;;29.37;23.62
54816;BME280;40715;55.752;37.884;2023-01-31T03:20:37;97069.47;;;29.53;25.10
54816;BME280;40715;55.752;37.884;2023-01-31T03:23:16;97078.56;;;29.33;26.00
54816;BME280;40715;55.752;37.884;2023-01-31T03:25:45;97077.34;;;29.29;26.48
54816;BME280;40715;55.752;37.884;2023-01-31T03:28:16;97078.81;;;29.25;26.64
54816;BME280;40715;55.752;37.884;2023-01-31T03:30:58;97080.69;;;29.24;26.37
54816;BME280;40715;55.752;37.884;2023-01-31T03:33:37;97086.72;;;29.26;26.73
54816;BME280;40715;55.752;37.884;2023-01-31T03:36:16;97093.19;;;29.25;27.04
54816;BME280;40715;55.752;37.884;2023-01-31T03:39:02;97096.13;;;29.24;27.17
54816;BME280;40715;55.752;37.884;2023-01-31T03:42:06;97099.47;;;29.26;27.00
54816;BME280;40715;55.752;37.884;2023-01-31T03:44:54;97097.19;;;29.16;27.00
54816;BME280;40715;55.752;37.884;2023-01-31T03:47:28;97093.00;;;29.14;27.19
54816;BME280;40715;55.752;37.884;2023-01-31T03:50:00;97088.41;;;29.14;27.16
54816;BME280;40715;55.752;37.884;2023-01-31T03:52:33;97098.44;;;29.14;27.06
54816;BME280;40715;55.752;37.884;2023-01-31T03:55:14;97098.00;;;29.17;27.18
54816;BME280;40715;55.752;37.884;2023-01-31T03:57:45;97105.69;;;29.20;27.17
54816;BME280;40715;55.752;37.884;2023-01-31T04:00:17;97107.38;;;29.21;27.33
54816;BME280;40715;55.752;37.884;2023-01-31T04:02:46;97105.47;;;29.21;27.03
54816;BME280;40715;55.752;37.884;2023-01-31T04:05:21;97102.19;;;29.26;26.97
54816;BME280;40715;55.752;37.884;2023-01-31T04:07:51;97106.53;;;29.27;26.89
54816;BME280;40715;55.752;37.884;2023-01-31T04:10:18;97102.56;;;29.30;26.64
54816;BME280;40715;55.752;37.884;2023-01-31T04:12:45;97100.66;;;29.30;26.81
54816;BME280;40715;55.752;37.884;2023-01-31T04:15:13;97098.16;;;29.35;26.80
54816;BME280;40715;55.752;37.884;2023-01-31T04:17:40;97098.78;;;29.37;26.72
54816;BME280;40715;55.752;37.884;2023-01-31T04:20:07;97107.53;;;29.39;26.73
54816;BME280;40715;55.752;37.884;2023-01-31T04:22:36;97112.72;;;29.41;26.60
54816;BME280;40715;55.752;37.884;2023-01-31T04:25:04;97113.56;;;29.41;26.71
54816;BME280;40715;55.752;37.884;2023-01-31T04:27:31;97115.22;;;29.42;26.58
54816;BME280;40715;55.752;37.884;2023-01-31T04:29:58;97116.47;;;29.40;26.70
54816;BME280;40715;55.752;37.884;2023-01-31T04:32:26;97122.97;;;29.39;26.85
54816;BME280;40715;55.752;37.884;2023-01-31T04:34:53;97121.53;;;29.36;26.79
54816;BME280;40715;55.752;37.884;2023-01-31T04:37:19;97126.31;;;29.34;26.79
54816;BME280;40715;55.752;37.884;2023-01-31T04:39:46;97128.41;;;29.32;26.61
54816;BME280;40715;55.752;37.884;2023-01-31T04:42:13;97128.84;;;29.29;26.68
54816;BME280;40715;55.752;37.884;2023-01-31T04:44:40;97142.00;;;29.25;26.37
54816;BME280;40715;55.752;37.884;2023-01-31T04:47:07;97137.84;;;29.23;25.82
54816;BME280;40715;55.752;37.884;2023-01-31T04:49:34;97141.41;;;29.23;26.32
54816;BME280;40715;55.752;37.884;2023-01-31T04:52:01;97148.03;;;29.21;26.44
54816;BME280;40715;55.752;37.884;2023-01-31T04:54:28;97149.94;;;29.20;26.77
54816;BME280;40715;55.752;37.884;2023-01-31T04:56:55;97144.72;;;29.19;25.64
54816;BME280;40715;55.752;37.884;2023-01-31T04:59:22;97149.72;;;29.15;26.10
54816;BME280;40715;55.752;37.884;2023-01-31T05:01:49;97157.06;;;29.08;26.41
54816;BME280;40715;55.752;37.884;2023-01-31T05:04:16;97155.38;;;29.07;26.67
54816;BME280;40715;55.752;37.884;2023-01-31T05:06:43;97151.41;;;29.09;26.55
54816;BME280;40715;55.752;37.884;2023-01-31T05:09:09;97144.94;;;29.10;26.65
54816;BME280;40715;55.752;37.884;2023-01-31T05:11:38;97145.16;;;29.09;26.50
54816;BME280;40715;55.752;37.884;2023-01-31T05:14:05;97147.66;;;29.10;26.47
54816;BME280;40715;55.752;37.884;2023-01-31T05:16:32;97152.66;;;29.14;26.46
54816;BME280;40715;55.752;37.884;2023-01-31T05:18:59;97152.66;;;29.14;26.49
54816;BME280;40715;55.752;37.884;2023-01-31T05:21:26;97153.09;;;29.04;26.51
54816;BME280;40715;55.752;37.884;2023-01-31T05:23:53;97148.97;;;28.95;26.68
54816;BME280;40715;55.752;37.884;2023-01-31T05:26:19;97143.53;;;28.95;26.56
54816;BME280;40715;55.752;37.884;2023-01-31T05:28:46;97140.41;;;28.91;26.58
54816;BME280;40715;55.752;37.884;2023-01-31T05:31:13;97152.28;;;28.97;26.41
54816;BME280;40715;55.752;37.884;2023-01-31T05:33:40;97153.97;;;28.98;26.54
54816;BME280;40715;55.752;37.884;2023-01-31T05:36:07;97166.03;;;29.02;26.45
54816;BME280;40715;55.752;37.884;2023-01-31T05:38:34;97168.97;;;29.00;26.24
54816;BME280;40715;55.752;37.884;2023-01-31T05:41:01;97151.63;;;29.01;26.10
54816;BME280;40715;55.752;37.884;2023-01-31T05:43:28;97161.00;;;29.05;26.15
54816;BME280;40715;55.752;37.884;2023-01-31T05:45:55;97162.47;;;29.08;26.11
54816;BME280;40715;55.752;37.884;2023-01-31T05:48:22;97147.88;;;29.02;25.93
54816;BME280;40715;55.752;37.884;2023-01-31T05:50:49;97163.13;;;29.03;25.92
54816;BME280;40715;55.752;37.884;2023-01-31T05:53:16;97160.63;;;29.02;25.99
54816;BME280;40715;55.752;37.884;2023-01-31T05:55:44;97165.41;;;29.00;25.88
54816;BME280;40715;55.752;37.884;2023-01-31T05:58:11;97169.38;;;28.97;25.82
54816;BME280;40715;55.752;37.884;2023-01-31T06:00:38;97176.06;;;28.95;25.80
54816;BME280;40715;55.752;37.884;2023-01-31T06:03:05;97174.81;;;28.90;25.84
54816;BME280;40715;55.752;37.884;2023-01-31T06:05:32;97184.19;;;28.88;25.91
54816;BME280;40715;55.752;37.884;2023-01-31T06:07:59;97173.78;;;28.85;25.91
54816;BME280;40715;55.752;37.884;2023-01-31T06:10:26;97180.66;;;28.81;25.77
54816;BME280;40715;55.752;37.884;2023-01-31T06:12:53;97187.94;;;28.80;25.76
54816;BME280;40715;55.752;37.884;2023-01-31T06:15:20;97188.38;;;28.77;25.88
54816;BME280;40715;55.752;37.884;2023-01-31T06:17:47;97189.00;;;28.72;25.55
54816;BME280;40715;55.752;37.884;2023-01-31T06:20:14;97188.41;;;28.70;25.62
54816;BME280;40715;55.752;37.884;2023-01-31T06:22:42;97199.25;;;28.70;25.75
54816;BME280;40715;55.752;37.884;2023-01-31T06:25:09;97190.91;;;28.72;25.61
54816;BME280;40715;55.752;37.884;2023-01-31T06:27:36;97191.09;;;28.70;25.66
54816;BME280;40715;55.752;37.884;2023-01-31T06:30:03;97197.97;;;28.73;25.73
54816;BME280;40715;55.752;37.884;2023-01-31T06:32:31;97194.84;;;28.76;25.61
54816;BME280;40715;55.752;37.884;2023-01-31T06:34:58;97192.34;;;28.81;25.50
54816;BME280;40715;55.752;37.884;2023-01-31T06:37:25;97202.53;;;28.86;25.42
54816;BME280;40715;55.752;37.884;2023-01-31T06:39:52;97196.50;;;28.90;25.39
54816;BME280;40715;55.752;37.884;2023-01-31T06:42:19;97204.19;;;28.93;25.38
54816;BME280;40715;55.752;37.884;2023-01-31T06:44:46;97212.72;;;28.97;25.26
54816;BME280;40715;55.752;37.884;2023-01-31T06:47:12;97215.22;;;28.99;25.40
54816;BME280;40715;55.752;37.884;2023-01-31T06:49:40;97216.03;;;29.06;25.33
54816;BME280;40715;55.752;37.884;2023-01-31T06:52:07;97217.28;;;29.10;25.23
54816;BME280;40715;55.752;37.884;2023-01-31T06:54:34;97227.91;;;29.12;25.09
54816;BME280;40715;55.752;37.884;2023-01-31T06:57:01;97232.94;;;29.15;25.02
54816;BME280;40715;55.752;37.884;2023-01-31T06:59:27;97225.41;;;29.17;24.74
54816;BME280;40715;55.752;37.884;2023-01-31T07:01:54;97235.03;;;29.13;24.79
54816;BME280;40715;55.752;37.884;2023-01-31T07:04:21;97241.91;;;29.15;24.86
54816;BME280;40715;55.752;37.884;2023-01-31T07:06:48;97237.09;;;29.17;24.74
54816;BME280;40715;55.752;37.884;2023-01-31T07:09:15;97233.16;;;29.13;24.70
54816;BME280;40715;55.752;37.884;2023-01-31T07:11:42;97233.56;;;29.17;24.81
54816;BME280;40715;55.752;37.884;2023-01-31T07:14:09;97238.38;;;29.15;24.65
54816;BME280;40715;55.752;37.884;2023-01-31T07:16:36;97234.19;;;29.12;24.56
54816;BME280;40715;55.752;37.884;2023-01-31T07:19:03;97236.47;;;29.08;24.71
54816;BME280;40715;55.752;37.884;2023-01-31T07:21:30;97237.34;;;29.09;24.67
54816;BME280;40715;55.752;37.884;2023-01-31T07:23:58;97244.63;;;29.08;24.69
54816;BME280;40715;55.752;37.884;2023-01-31T07:26:25;97248.56;;;29.06;24.87
54816;BME280;40715;55.752;37.884;2023-01-31T07:28:53;97259.63;;;29.04;24.63
54816;BME280;40715;55.752;37.884;2023-01-31T07:31:20;97252.56;;;29.03;24.75
54816;BME280;40715;55.752;37.884;2023-01-31T07:33:47;97259.44;;;28.99;24.69
54816;BME280;40715;55.752;37.884;2023-01-31T07:36:15;97258.41;;;28.93;24.71
54816;BME280;40715;55.752;37.884;2023-01-31T07:38:45;97268.59;;;28.91;24.52
54816;BME280;40715;55.752;37.884;2023-01-31T07:41:12;97265.50;;;28.88;24.68
54816;BME280;40715;55.752;37.884;2023-01-31T07:43:39;97273.19;;;28.84;24.71
54816;BME280;40715;55.752;37.884;2023-01-31T07:46:07;97266.72;;;28.79;24.67
54816;BME280;40715;55.752;37.884;2023-01-31T07:48:36;97268.63;;;28.78;24.77
54816;BME280;40715;55.752;37.884;2023-01-31T07:51:04;97261.75;;;28.75;24.63
54816;BME280;40715;55.752;37.884;2023-01-31T07:53:33;97273.44;;;28.76;24.61
54816;BME280;40715;55.752;37.884;2023-01-31T07:58:34;97284.66;;;28.80;24.49
54816;BME280;40715;55.752;37.884;2023-01-31T08:01:02;97279.47;;;28.85;24.30
54816;BME280;40715;55.752;37.884;2023-01-31T08:03:47;97284.88;;;28.91;24.47
54816;BME280;40715;55.752;37.884;2023-01-31T08:06:15;97283.81;;;28.86;24.65
54816;BME280;40715;55.752;37.884;2023-01-31T08:08:43;97292.78;;;28.93;24.73
54816;BME280;40715;55.752;37.884;2023-01-31T08:11:10;97278.84;;;28.96;24.21
54816;BME280;40715;55.752;37.884;2023-01-31T08:13:38;97295.28;;;29.01;24.20
54816;BME280;40715;55.752;37.884;2023-01-31T08:16:07;97293.63;;;29.07;24.51
54816;BME280;40715;55.752;37.884;2023-01-31T08:18:36;97292.97;;;29.12;24.38
54816;BME280;40715;55.752;37.884;2023-01-31T08:21:04;97294.88;;;29.18;24.53
54816;BME280;40715;55.752;37.884;2023-01-31T08:23:32;97301.56;;;29.22;24.39
54816;BME280;40715;55.752;37.884;2023-01-31T08:26:01;97308.81;;;29.21;24.01
54816;BME280;40715;55.752;37.884;2023-01-31T08:28:29;97301.97;;;29.25;24.16
54816;BME280;40715;55.752;37.884;2023-01-31T08:30:57;97303.66;;;29.26;24.29
54816;BME280;40715;55.752;37.884;2023-01-31T08:33:35;97303.66;;;29.26;24.12
54816;BME280;40715;55.752;37.884;2023-01-31T08:36:13;97309.28;;;29.32;24.49
54816;BME280;40715;55.752;37.884;2023-01-31T08:38:41;97315.31;;;29.27;24.36
54816;BME280;40715;55.752;37.884;2023-01-31T08:41:09;97313.03;;;29.24;24.53
54816;BME280;40715;55.752;37.884;2023-01-31T08:43:36;97319.28;;;29.18;24.65
54816;BME280;40715;55.752;37.884;2023-01-31T08:46:20;97323.44;;;29.14;24.78
54816;BME280;40715;55.752;37.884;2023-01-31T08:48:47;97313.25;;;29.09;24.70
54816;BME280;40715;55.752;37.884;2023-01-31T08:51:14;97313.63;;;29.06;25.12
54816;BME280;40715;55.752;37.884;2023-01-31T08:53:42;97315.53;;;29.05;24.94
54816;BME280;40715;55.752;37.884;2023-01-31T08:56:11;97321.16;;;29.04;24.97
54816;BME280;40715;55.752;37.884;2023-01-31T08:58:40;97326.38;;;29.05;24.84
54816;BME280;40715;55.752;37.884;2023-01-31T09:03:36;97331.97;;;28.97;25.18
54816;BME280;40715;55.752;37.884;2023-01-31T09:06:06;97316.78;;;28.96;25.13
54816;BME280;40715;55.752;37.884;2023-01-31T09:08:34;97320.09;;;28.91;25.12
54816;BME280;40715;55.752;37.884;2023-01-31T09:11:01;97321.97;;;28.84;24.82
54816;BME280;40715;55.752;37.884;2023-01-31T09:13:30;97305.53;;;28.79;24.97
54816;BME280;40715;55.752;37.884;2023-01-31T09:15:58;97315.72;;;28.77;25.32
54816;BME280;40715;55.752;37.884;2023-01-31T09:18:26;97320.94;;;28.79;25.34
54816;BME280;40715;55.752;37.884;2023-01-31T09:20:53;97316.16;;;28.81;25.31
54816;BME280;40715;55.752;37.884;2023-01-31T09:23:20;97319.47;;;28.83;24.76
54816;BME280;40715;55.752;37.884;2023-01-31T09:25:54;97313.25;;;28.89;24.95
54816;BME280;40715;55.752;37.884;2023-01-31T09:28:22;97329.09;;;28.92;25.09
54816;BME280;40715;55.752;37.884;2023-01-31T09:30:50;97325.94;;;28.95;24.86
54816;BME280;40715;55.752;37.884;2023-01-31T09:33:20;97324.06;;;29.02;24.88
54816;BME280;40715;55.752;37.884;2023-01-31T09:35:58;97313.84;;;29.11;24.66
54816;BME280;40715;55.752;37.884;2023-01-31T09:38:26;97307.19;;;29.14;24.32
54816;BME280;40715;55.752;37.884;2023-01-31T09:40:55;97303.22;;;29.16;23.77
54816;BME280;40715;55.752;37.884;2023-01-31T09:43:30;97314.25;;;29.21;23.56
54816;BME280;40715;55.752;37.884;2023-01-31T09:46:01;97318.03;;;29.27;24.12
54816;BME280;40715;55.752;37.884;2023-01-31T09:48:32;97316.56;;;29.31;24.15
54816;BME280;40715;55.752;37.884;2023-01-31T09:51:01;97305.72;;;29.31;24.11
54816;BME280;40715;55.752;37.884;2023-01-31T09:53:34;97312.19;;;29.37;24.28
54816;BME280;40715;55.752;37.884;2023-01-31T09:58:54;97305.06;;;29.42;24.05
54816;BME280;40715;55.752;37.884;2023-01-31T10:19:54;97328.28;;;29.32;24.37
54816;BME280;40715;55.752;37.884;2023-01-31T10:24:57;97324.31;;;29.27;24.51
54816;BME280;40715;55.752;37.884;2023-01-31T10:28:01;97328.06;;;29.33;24.60
54816;BME280;40715;55.752;37.884;2023-01-31T10:30:36;97323.47;;;29.27;24.89
54816;BME280;40715;55.752;37.884;2023-01-31T10:44:31;97337.44;;;29.10;24.95
54816;BME280;40715;55.752;37.884;2023-01-31T10:47:04;97330.97;;;29.05;24.99
54816;BME280;40715;55.752;37.884;2023-01-31T10:49:34;97333.03;;;29.03;24.58
54816;BME280;40715;55.752;37.884;2023-01-31T10:57:41;97360.97;;;28.97;25.19
54816;BME280;40715;55.752;37.884;2023-01-31T11:00:29;97358.06;;;29.12;25.26
54816;BME280;40715;55.752;37.884;2023-01-31T11:02:58;97349.09;;;29.04;25.28
54816;BME280;40715;55.752;37.884;2023-01-31T11:05:27;97343.44;;;29.06;25.25
54816;BME280;40715;55.752;37.884;2023-01-31T11:07:57;97356.41;;;29.10;25.22
54816;BME280;40715;55.752;37.884;2023-01-31T11:10:28;97361.41;;;29.20;24.56
54816;BME280;40715;55.752;37.884;2023-01-31T11:13:05;97353.72;;;29.24;23.96
54816;BME280;40715;55.752;37.884;2023-01-31T11:15:42;97342.88;;;29.31;23.23
54816;BME280;40715;55.752;37.884;2023-01-31T11:18:14;97356.84;;;29.27;22.51
54816;BME280;40715;55.752;37.884;2023-01-31T11:20:51;97344.94;;;29.29;21.82
54816;BME280;40715;55.752;37.884;2023-01-31T11:23:22;97342.22;;;29.29;21.81
54816;BME280;40715;55.752;37.884;2023-01-31T11:25:50;97334.09;;;29.29;21.55
54816;BME280;40715;55.752;37.884;2023-01-31T11:28:21;97336.41;;;29.32;21.85
54816;BME280;40715;55.752;37.884;2023-01-31T11:30:51;97339.72;;;29.34;21.96
54816;BME280;40715;55.752;37.884;2023-01-31T11:33:40;97331.78;;;29.46;22.21
54816;BME280;40715;55.752;37.884;2023-01-31T11:36:09;97349.53;;;29.35;22.44
54816;BME280;40715;55.752;37.884;2023-01-31T11:38:37;97354.13;;;29.34;22.59
54816;BME280;40715;55.752;37.884;2023-01-31T11:41:28;97358.91;;;29.46;22.53
54816;BME280;40715;55.752;37.884;2023-01-31T11:46:41;97356.81;;;29.34;22.76
54816;BME280;40715;55.752;37.884;2023-01-31T11:49:11;97351.22;;;29.29;22.72
54816;BME280;40715;55.752;37.884;2023-01-31T11:51:39;97356.00;;;29.27;22.91
54816;BME280;40715;55.752;37.884;2023-01-31T11:54:06;97361.84;;;29.24;22.82
54816;BME280;40715;55.752;37.884;2023-01-31T11:56:35;97364.94;;;29.21;22.71
54816;BME280;40715;55.752;37.884;2023-01-31T11:59:05;97355.56;;;29.17;22.88
54816;BME280;40715;55.752;37.884;2023-01-31T12:01:48;97345.75;;;29.16;22.88
54816;BME280;40715;55.752;37.884;2023-01-31T12:04:40;97347.84;;;29.14;22.92
54816;BME280;40715;55.752;37.884;2023-01-31T12:07:25;97365.16;;;29.19;23.01
54816;BME280;40715;55.752;37.884;2023-01-31T12:09:52;97357.22;;;29.04;23.03
54816;BME280;40715;55.752;37.884;2023-01-31T12:12:33;97365.13;;;29.06;23.12
54816;BME280;40715;55.752;37.884;2023-01-31T12:15:02;97363.28;;;29.06;23.00
54816;BME280;40715;55.752;37.884;2023-01-31T12:17:34;97363.28;;;29.06;22.81
54816;BME280;40715;55.752;37.884;2023-01-31T12:23:09;97369.94;;;29.17;22.68
54816;BME280;40715;55.752;37.884;2023-01-31T12:25:53;97366.84;;;29.20;22.93
54816;BME280;40715;55.752;37.884;2023-01-31T12:33:57;97370.81;;;29.24;22.83
54816;BME280;40715;55.752;37.884;2023-01-31T12:36:38;97385.41;;;29.30;22.82
54816;BME280;40715;55.752;37.884;2023-01-31T12:42:25;97389.59;;;29.26;22.46
54816;BME280;40715;55.752;37.884;2023-01-31T12:45:25;97382.72;;;29.23;22.63
54816;BME280;40715;55.752;37.884;2023-01-31T12:53:29;97400.81;;;29.16;22.27
54816;BME280;40715;55.752;37.884;2023-01-31T12:58:57;97405.44;;;29.29;22.11
54816;BME280;40715;55.752;37.884;2023-01-31T13:07:10;97420.22;;;29.13;21.79
54816;BME280;40715;55.752;37.884;2023-01-31T13:09:39;97406.84;;;29.12;21.69
54816;BME280;40715;55.752;37.884;2023-01-31T13:14:42;97406.03;;;29.11;21.74
54816;BME280;40715;55.752;37.884;2023-01-31T13:17:12;97413.13;;;29.12;21.71
54816;BME280;40715;55.752;37.884;2023-01-31T13:19:45;97414.59;;;29.15;21.67
54816;BME280;40715;55.752;37.884;2023-01-31T13:22:20;97396.88;;;29.59;21.43
54816;BME280;40715;55.752;37.884;2023-01-31T13:24:56;97403.53;;;29.16;21.55
54816;BME280;40715;55.752;37.884;2023-01-31T13:27:37;97403.13;;;29.19;21.61
54816;BME280;40715;55.752;37.884;2023-01-31T13:30:17;97401.84;;;29.15;21.54
54816;BME280;40715;55.752;37.884;2023-01-31T13:32:48;97413.34;;;29.10;21.46
54816;BME280;40715;55.752;37.884;2023-01-31T13:37:54;97389.53;;;29.13;21.62
54816;BME280;40715;55.752;37.884;2023-01-31T13:40:25;97387.03;;;29.11;21.54
54816;BME280;40715;55.752;37.884;2023-01-31T13:42:54;97381.19;;;29.14;21.72
54816;BME280;40715;55.752;37.884;2023-01-31T13:45:34;97396.44;;;29.22;21.67
54816;BME280;40715;55.752;37.884;2023-01-31T13:48:09;97390.38;;;29.20;21.88
54816;BME280;40715;55.752;37.884;2023-01-31T13:50:51;97378.94;;;29.24;21.29
54816;BME280;40715;55.752;37.884;2023-01-31T13:53:24;97398.72;;;29.18;22.20
54816;BME280;40715;55.752;37.884;2023-01-31T13:55:53;97401.66;;;29.17;22.11
54816;BME280;40715;55.752;37.884;2023-01-31T13:58:24;97417.50;;;29.20;22.18
54816;BME280;40715;55.752;37.884;2023-01-31T14:01:18;97397.72;;;29.33;21.58
54816;BME280;40715;55.752;37.884;2023-01-31T14:14:47;97463.19;;;29.23;23.05
54816;BME280;40715;55.752;37.884;2023-01-31T14:22:17;97469.00;;;29.20;23.26
54816;BME280;40715;55.752;37.884;2023-01-31T14:27:37;97472.34;;;29.15;23.38
54816;BME280;40715;55.752;37.884;2023-01-31T14:32:39;97470.88;;;29.13;23.25
54816;BME280;40715;55.752;37.884;2023-01-31T14:57:37;97480.72;;;29.20;23.25
54816;BME280;40715;55.752;37.884;2023-01-31T15:00:17;97478.59;;;29.09;23.38
54816;BME280;40715;55.752;37.884;2023-01-31T15:08:03;97479.63;;;29.08;23.46
54816;BME280;40715;55.752;37.884;2023-01-31T15:13:56;97480.28;;;29.17;23.51
54816;BME280;40715;55.752;37.884;2023-01-31T15:16:33;97480.50;;;29.22;23.10
54816;BME280;40715;55.752;37.884;2023-01-31T15:19:09;97487.38;;;29.18;23.25
54816;BME280;40715;55.752;37.884;2023-01-31T15:21:39;97482.56;;;29.20;23.38
54816;BME280;40715;55.752;37.884;2023-01-31T15:24:26;97479.50;;;29.30;23.30
54816;BME280;40715;55.752;37.884;2023-01-31T15:26:58;97481.16;;;29.24;23.03
54816;BME280;40715;55.752;37.884;2023-01-31T15:32:21;97485.53;;;29.25;23.31
54816;BME280;40715;55.752;37.884;2023-01-31T15:34:56;97483.44;;;29.27;23.31
54816;BME280;40715;55.752;37.884;2023-01-31T15:37:30;97491.78;;;29.25;23.28
54816;BME280;40715;55.752;37.884;2023-01-31T15:40:20;97491.59;;;29.34;23.23
54816;BME280;40715;55.752;37.884;2023-01-31T15:42:48;97505.13;;;29.20;23.38
54816;BME280;40715;55.752;37.884;2023-01-31T15:45:28;97493.03;;;29.23;23.33
54816;BME280;40715;55.752;37.884;2023-01-31T15:48:00;97492.16;;;29.16;22.76
54816;BME280;40715;55.752;37.884;2023-01-31T15:50:29;97491.31;;;29.08;22.97
54816;BME280;40715;55.752;37.884;2023-01-31T15:53:05;97500.69;;;29.13;23.19
54816;BME280;40715;55.752;37.884;2023-01-31T15:55:34;97486.09;;;29.07;22.89
54816;BME280;40715;55.752;37.884;2023-01-31T15:58:02;97494.22;;;29.00;22.67
54816;BME280;40715;55.752;37.884;2023-01-31T16:00:36;97489.19;;;28.97;23.07
54816;BME280;40715;55.752;37.884;2023-01-31T16:03:06;97506.91;;;28.93;23.05
54816;BME280;40715;55.752;37.884;2023-01-31T16:05:36;97500.03;;;28.90;23.49
54816;BME280;40715;55.752;37.884;2023-01-31T16:08:40;97499.66;;;29.00;23.03
54816;BME280;40715;55.752;37.884;2023-01-31T16:11:08;97510.03;;;28.90;23.32
54816;BME280;40715;55.752;37.884;2023-01-31T16:13:37;97506.47;;;28.89;23.10
54816;BME280;40715;55.752;37.884;2023-01-31T16:16:08;97500.41;;;28.87;23.09